WetterOnline ( https://www.wetteronline.de )

Wetter aktuell Mayen

Aktuelles Wetter: Nürburg-Barweiler (488m)

6-stündlich | Neueste Meldungen
Ortszeit Temperatur Wetter
Mi, 20.11. 7:00 0.4° C bedeckt
Mi, 20.11. 1:00 -2.5° C bedeckt
Di, 19.11. 19:00 0.9° C wolkenlos
Di, 19.11. 13:00 2.8° C bedeckt
Di, 19.11. 7:00 0.7° C fast wolkenlos
Di, 19.11. 1:00 1.4° C Sprühregen
Mo, 18.11. 19:00 0.2° C Schneefall
Mo, 18.11. 13:00 1.6° C Sprühregen
Ortszeit Temperatur Wetter
Mi, 20.11. 10:00 -0.4° C bedeckt
Mi, 20.11. 9:30 -0.4° C bedeckt
Mi, 20.11. 9:20 -0.4° C bedeckt
Mi, 20.11. 9:10 -0.4° C bedeckt
Mi, 20.11. 9:00 -0.2° C bedeckt
Mi, 20.11. 8:50 -0.2° C bedeckt
Mi, 20.11. 8:30 -0.1° C bedeckt
Mi, 20.11. 8:00 0.2° C bedeckt
Mi, 20.11. 7:30 -0.5° C bedeckt
Mi, 20.11. 7:00 0.4° C bedeckt
Mi, 20.11. 6:30 0.1° C bedeckt
Ortszeit Relative Feuchte Sichtweite
Mi, 20.11. 7:00 92% 40 km
Mi, 20.11. 1:00 99% 15 km
Di, 19.11. 19:00 95% 35 km
Di, 19.11. 13:00 82% 70 km
Di, 19.11. 7:00 98% -
Di, 19.11. 1:00 99% -
Mo, 18.11. 19:00 99% -
Mo, 18.11. 13:00 97% -
Ortszeit Relative Feuchte Sichtweite
Mi, 20.11. 10:00 98% 25 km
Mi, 20.11. 9:30 96% 23 km
Mi, 20.11. 9:20 96% -
Mi, 20.11. 9:10 96% -
Mi, 20.11. 9:00 96% 30 km
Mi, 20.11. 8:50 96% -
Mi, 20.11. 8:30 94% 30 km
Mi, 20.11. 8:00 92% 45 km
Mi, 20.11. 7:30 96% 18 km
Mi, 20.11. 7:00 92% 40 km
Mi, 20.11. 6:30 94% 45 km
Ortszeit Niederschlagsmenge Niederschlagsart
Mi, 20.11. 7:00 0.0 l/m2 in 12 Std. -
Mi, 20.11. 1:00 0.0 l/m2 in 6 Std. -
Di, 19.11. 19:00 0.1 l/m2 in 12 Std. Regen
Di, 19.11. 13:00 0.0 l/m2 in 6 Std. -
Di, 19.11. 7:00 5 l/m2 in 12 Std. -
Di, 19.11. 1:00 5 l/m2 in 6 Std. Schnee, Regen
Mo, 18.11. 19:00 5 l/m2 in 12 Std. Schnee, Regen
Mo, 18.11. 13:00 0.4 l/m2 in 6 Std. Schnee, Regen
Ortszeit Niederschlagsmenge Niederschlagsart
Mi, 20.11. 10:00 0.0 l/m2 in 1 Std. -
Mi, 20.11. 9:30 0.0 l/m2 in 1 Std. -
Mi, 20.11. 9:20 keine Meldung -
Mi, 20.11. 9:10 keine Meldung -
Mi, 20.11. 9:00 0.0 l/m2 in 1 Std. -
Mi, 20.11. 8:50 keine Meldung -
Mi, 20.11. 8:30 0.0 l/m2 in 1 Std. -
Mi, 20.11. 8:00 0.0 l/m2 in 1 Std. -
Mi, 20.11. 7:30 0.0 l/m2 in 1 Std. -
Mi, 20.11. 7:00 0.0 l/m2 in 1 Std. -
Mi, 20.11. 6:30 0.0 l/m2 in 1 Std. -
Ortszeit Stärke Spitze Richtung
km/h Bft. km/h Grad Sektor
Mi, 20.11. 7:00 6 1 15 110° O
Mi, 20.11. 1:00 2 1 9 210° SW
Di, 19.11. 19:00 7 2 22 210° SW
Di, 19.11. 13:00 11 2 18 250° W
Di, 19.11. 7:00 7 2 18 260° W
Di, 19.11. 1:00 11 2 25 240° SW
Mo, 18.11. 19:00 11 2 22 220° SW
Mo, 18.11. 13:00 9 2 20 260° W
Ortszeit Stärke Spitze Richtung
km/h Bft. km/h Grad Sektor
Mi, 20.11. 10:00 11 2 25 80° O
Mi, 20.11. 9:30 13 3 20 100° O
Mi, 20.11. 9:20 13 3 - 100° O
Mi, 20.11. 9:10 13 3 - 100° O
Mi, 20.11. 9:00 9 2 19 90° O
Mi, 20.11. 8:50 9 2 - 90° O
Mi, 20.11. 8:30 11 2 18 90° O
Mi, 20.11. 8:00 13 3 20 100° O
Mi, 20.11. 7:30 7 2 18 100° O
Mi, 20.11. 7:00 6 1 13 110° O
Mi, 20.11. 6:30 6 1 13 100° O
Ortszeit Untergrenze Bedeckung Gattung
total tief tief mittel hoch
Mi, 20.11. 7:00 360 m 8/8 8/8 - - -
Mi, 20.11. 1:00 450 m 8/8 8/8 - - -
Di, 19.11. 19:00 - 0/8 0/8 - - -
Di, 19.11. 13:00 360 m 8/8 8/8 - - -
Di, 19.11. 7:00 330 m 1/8 1/8 - - -
Di, 19.11. 1:00 270 m 8/8 8/8 - - -
Mo, 18.11. 19:00 90 m 8/8 8/8 - - -
Mo, 18.11. 13:00 180 m 7/8 7/8 - - -
Ortszeit Bedeckungsgrad in Achtel und Wolkenuntergrenze
Mi, 20.11. 10:00 8(90m)
Mi, 20.11. 9:30 8(120m)
Mi, 20.11. 9:20 8(120m)
Mi, 20.11. 9:10 8(120m)
Mi, 20.11. 9:00 8(150m)
Mi, 20.11. 8:50 8(150m)
Mi, 20.11. 8:30 8(180m)
Mi, 20.11. 8:00 8(210m)
Mi, 20.11. 7:30 8(300m)
Mi, 20.11. 7:00 8(360m)
Mi, 20.11. 6:30 8(390m)
Ortszeit Luftdruck NN (hPa) Tendenz (hPa in 3 Std.)
Mi, 20.11. 7:00 1020 - 0,3
Mi, 20.11. 1:00 1021 0,0
Di, 19.11. 19:00 1020 + 0,8
Di, 19.11. 13:00 1018 + 0,7
Di, 19.11. 7:00 1017 + 1,1
Di, 19.11. 1:00 1014 + 2,0
Mo, 18.11. 19:00 1010 + 1,1
Mo, 18.11. 13:00 1008 + 0,3
Ortszeit Luftdruck NN (hPa) Tendenz (hPa in 3 Std.)
Mi, 20.11. 10:00 1019 - 0,5
Mi, 20.11. 9:30 1020 - 0,2
Mi, 20.11. 9:20 1020 keine Meldung
Mi, 20.11. 9:10 1019 keine Meldung
Mi, 20.11. 9:00 1019 - 0,6
Mi, 20.11. 8:50 1019 keine Meldung
Mi, 20.11. 8:30 1019 - 0,5
Mi, 20.11. 8:00 1019 - 0,4
Mi, 20.11. 7:30 1020 - 0,6
Mi, 20.11. 7:00 1020 - 0,3
Mi, 20.11. 6:30 1020 - 0,7
Ortszeit Schneehöhe (cm)
Mi, 20.11. 7:00 0
Mi, 20.11. 1:00 0
Di, 19.11. 19:00 0
Di, 19.11. 13:00 0
Di, 19.11. 7:00 0
Di, 19.11. 1:00 -
Mo, 18.11. 19:00 0
Mo, 18.11. 13:00 0
Ortszeit Schneehöhe (cm)
Mi, 20.11. 10:00 0
Mi, 20.11. 9:30 0
Mi, 20.11. 9:20 0
Mi, 20.11. 9:10 0
Mi, 20.11. 9:00 0
Mi, 20.11. 8:50 0
Mi, 20.11. 8:30 0
Mi, 20.11. 8:00 0
Mi, 20.11. 7:30 0
Mi, 20.11. 7:00 0
Mi, 20.11. 6:30 0
Link zu dieser Seite / Seite empfehlen

Das Wetter in ...